createdAt,value
2019-02-06T00:02:24.979Z,87.60
2019-02-06T00:05:14.293Z,87.60
2019-02-06T00:07:57.479Z,88.00
2019-02-06T00:10:42.690Z,87.90
2019-02-06T00:13:28.136Z,87.10
2019-02-06T00:16:13.596Z,87.70
2019-02-06T00:18:59.000Z,88.00
2019-02-06T00:21:44.115Z,88.00
2019-02-06T00:24:29.485Z,87.70
2019-02-06T00:27:14.826Z,88.00
2019-02-06T00:29:59.885Z,88.40
2019-02-06T00:32:45.422Z,88.10
2019-02-06T00:35:30.514Z,88.10
2019-02-06T00:38:16.452Z,88.20
2019-02-06T00:41:01.605Z,88.10
2019-02-06T00:43:46.894Z,88.30
2019-02-06T00:46:32.461Z,88.50
2019-02-06T00:49:17.551Z,88.30
2019-02-06T00:52:03.004Z,88.10
2019-02-06T00:54:47.995Z,88.30
2019-02-06T00:57:33.367Z,88.00
2019-02-06T01:00:21.711Z,88.10
2019-02-06T01:03:06.973Z,88.00
2019-02-06T01:05:52.099Z,88.40
2019-02-06T01:08:37.359Z,88.10
2019-02-06T01:11:23.256Z,88.20
2019-02-06T01:14:08.381Z,88.20
2019-02-06T01:16:53.789Z,87.80
2019-02-06T01:19:38.903Z,88.10
2019-02-06T01:22:23.792Z,88.10
2019-02-06T01:25:12.187Z,88.50
2019-02-06T01:27:57.855Z,88.20
2019-02-06T01:30:44.944Z,88.20
2019-02-06T01:33:30.329Z,88.00
2019-02-06T01:36:15.902Z,88.70
2019-02-06T01:39:01.510Z,88.50
2019-02-06T01:41:47.091Z,88.20
2019-02-06T01:44:31.919Z,88.30
2019-02-06T01:47:17.229Z,88.20
2019-02-06T01:50:06.167Z,88.20
2019-02-06T01:52:51.775Z,88.00
2019-02-06T01:55:36.619Z,88.30
2019-02-06T01:58:22.221Z,88.30
2019-02-06T02:01:07.415Z,88.70
2019-02-06T02:03:52.911Z,88.30
2019-02-06T02:06:38.515Z,88.40
2019-02-06T02:09:24.278Z,88.50
2019-02-06T02:12:09.491Z,88.60
2019-02-06T02:14:54.841Z,88.40
2019-02-06T02:17:40.086Z,88.50
2019-02-06T02:20:25.346Z,88.70
2019-02-06T02:23:10.651Z,89.00
2019-02-06T02:25:55.904Z,88.80
2019-02-06T02:28:41.128Z,88.60
2019-02-06T02:31:26.476Z,88.50
2019-02-06T02:34:11.468Z,88.70
2019-02-06T02:36:57.310Z,88.60
2019-02-06T02:39:42.809Z,88.70
2019-02-06T02:42:27.871Z,88.60
2019-02-06T02:45:15.181Z,88.70
2019-02-06T02:48:00.481Z,89.10
2019-02-06T02:50:45.405Z,88.90
2019-02-06T02:53:30.673Z,89.00
2019-02-06T02:56:16.052Z,88.60
2019-02-06T02:59:01.217Z,88.90
2019-02-06T03:01:50.869Z,88.90
2019-02-06T03:04:35.896Z,89.00
2019-02-06T03:07:20.976Z,88.80
2019-02-06T03:10:09.135Z,88.80
2019-02-06T03:12:54.252Z,89.40
2019-02-06T03:15:40.430Z,89.10
2019-02-06T03:18:25.835Z,89.00
2019-02-06T03:21:11.234Z,89.10
2019-02-06T03:23:56.364Z,89.20
2019-02-06T03:26:41.639Z,89.00
2019-02-06T03:29:27.327Z,89.30
2019-02-06T03:32:12.304Z,89.30
2019-02-06T03:34:57.426Z,89.20
2019-02-06T03:37:42.864Z,89.10
2019-02-06T03:40:27.962Z,89.30
2019-02-06T03:43:13.655Z,89.30
2019-02-06T03:45:58.646Z,89.40
2019-02-06T03:48:43.914Z,89.50
2019-02-06T03:51:29.105Z,89.80
2019-02-06T03:54:14.217Z,89.90
2019-02-06T03:56:59.374Z,89.80
2019-02-06T03:59:44.817Z,89.30
2019-02-06T04:02:29.788Z,89.30
2019-02-06T04:05:14.814Z,89.60
2019-02-06T04:07:59.885Z,89.50
2019-02-06T04:10:45.381Z,89.80
2019-02-06T04:13:30.690Z,89.60
2019-02-06T04:16:16.086Z,89.50
2019-02-06T04:19:01.295Z,89.20
2019-02-06T04:21:46.666Z,89.40
2019-02-06T04:24:31.988Z,89.40
2019-02-06T04:27:17.458Z,89.40
2019-02-06T04:30:03.567Z,89.50
2019-02-06T04:32:48.743Z,89.50
2019-02-06T04:35:33.802Z,89.00
2019-02-06T04:38:18.569Z,89.00
2019-02-06T04:41:04.265Z,88.90
2019-02-06T04:43:49.589Z,88.90
2019-02-06T04:46:35.530Z,88.90
2019-02-06T04:49:20.798Z,88.90
2019-02-06T04:52:06.615Z,89.10
2019-02-06T04:54:51.979Z,88.50
2019-02-06T04:57:37.201Z,88.40
2019-02-06T05:00:42.848Z,88.90
2019-02-06T05:03:27.841Z,88.00
2019-02-06T05:06:13.252Z,88.10
2019-02-06T05:08:58.523Z,88.10
2019-02-06T05:11:43.466Z,88.50
2019-02-06T05:14:28.780Z,88.20
2019-02-06T05:17:14.208Z,88.60
2019-02-06T05:20:00.315Z,88.40
2019-02-06T05:22:45.756Z,88.90
2019-02-06T05:25:30.872Z,88.90
2019-02-06T05:28:18.300Z,88.60
2019-02-06T05:31:03.222Z,89.00
2019-02-06T05:33:48.966Z,88.70
2019-02-06T05:36:34.246Z,89.10
2019-02-06T05:39:19.432Z,89.20
2019-02-06T05:42:04.857Z,88.70
2019-02-06T05:44:49.923Z,89.20
2019-02-06T05:47:35.333Z,89.00
2019-02-06T05:50:20.537Z,89.20
2019-02-06T05:53:05.804Z,89.30
2019-02-06T05:55:51.643Z,88.90
2019-02-06T05:58:36.739Z,88.80
2019-02-06T06:01:24.069Z,88.80
2019-02-06T06:04:09.343Z,89.20
2019-02-06T06:06:54.631Z,89.00
2019-02-06T06:09:39.765Z,89.60
2019-02-06T06:12:24.992Z,89.20
2019-02-06T06:15:12.275Z,89.20
2019-02-06T06:17:57.526Z,89.60
2019-02-06T06:20:42.821Z,89.60
2019-02-06T06:23:28.057Z,89.30
2019-02-06T06:26:13.294Z,89.50
2019-02-06T06:28:58.557Z,89.30
2019-02-06T06:31:43.859Z,89.10
2019-02-06T06:34:30.911Z,89.30
2019-02-06T06:37:16.490Z,89.10
2019-02-06T06:40:01.816Z,89.10
2019-02-06T06:42:46.963Z,89.10
2019-02-06T06:45:34.077Z,89.10
2019-02-06T06:48:19.569Z,89.50
2019-02-06T06:51:06.598Z,89.10
2019-02-06T06:53:51.732Z,89.30
2019-02-06T06:56:36.852Z,89.30
2019-02-06T06:59:22.342Z,89.20
2019-02-06T07:02:07.328Z,89.00
2019-02-06T07:04:56.587Z,88.70
2019-02-06T07:07:41.979Z,88.80
2019-02-06T07:10:47.077Z,88.70
2019-02-06T07:13:32.070Z,88.40
2019-02-06T07:16:17.408Z,88.80
2019-02-06T07:19:02.819Z,88.60
2019-02-06T07:21:47.896Z,88.50
2019-02-06T07:24:33.152Z,88.60
2019-02-06T07:27:20.991Z,88.50
2019-02-06T07:30:08.807Z,88.60
2019-02-06T07:32:53.970Z,88.90
2019-02-06T07:35:39.271Z,88.50
2019-02-06T07:38:24.688Z,88.20
2019-02-06T07:41:10.071Z,88.20
2019-02-06T07:43:55.871Z,88.30
2019-02-06T07:46:41.098Z,87.70
2019-02-06T07:49:26.379Z,87.60
2019-02-06T07:52:11.519Z,87.10
2019-02-06T07:54:56.672Z,87.20
2019-02-06T07:57:41.902Z,87.10
2019-02-06T08:00:27.571Z,86.90
2019-02-06T08:03:12.955Z,86.90
2019-02-06T08:05:58.231Z,86.70
2019-02-06T08:08:43.416Z,86.60
2019-02-06T08:11:28.631Z,86.20
2019-02-06T08:14:13.840Z,86.30
2019-02-06T08:16:59.456Z,85.70
2019-02-06T08:19:45.280Z,86.10
2019-02-06T08:22:30.744Z,85.40
2019-02-06T08:25:17.728Z,85.10
2019-02-06T08:28:02.766Z,84.90
2019-02-06T08:30:48.030Z,84.80
2019-02-06T08:33:33.734Z,83.60
2019-02-06T08:36:18.912Z,83.50
2019-02-06T08:39:06.845Z,83.20
2019-02-06T08:41:52.440Z,82.70
2019-02-06T08:44:38.071Z,82.20
2019-02-06T08:47:23.319Z,81.80
2019-02-06T08:50:12.461Z,81.60
2019-02-06T08:52:57.529Z,80.80
2019-02-06T08:55:42.757Z,80.60
2019-02-06T08:58:28.415Z,80.20
2019-02-06T09:01:13.953Z,79.40
2019-02-06T09:03:59.067Z,78.30
2019-02-06T09:06:44.647Z,77.90
2019-02-06T09:09:29.824Z,78.10
2019-02-06T09:12:15.222Z,76.90
2019-02-06T09:15:00.451Z,76.90
2019-02-06T09:17:46.292Z,76.70
2019-02-06T09:20:31.517Z,76.90
2019-02-06T09:23:16.714Z,76.10
2019-02-06T09:26:02.299Z,75.40
2019-02-06T09:28:47.960Z,75.30
2019-02-06T09:31:33.545Z,74.30
2019-02-06T09:34:18.338Z,73.80
2019-02-06T09:37:23.497Z,73.00
2019-02-06T09:40:12.260Z,72.30
2019-02-06T09:42:57.695Z,72.20
2019-02-06T09:45:42.797Z,72.50
2019-02-06T09:48:28.008Z,71.10
2019-02-06T09:51:13.711Z,70.20
2019-02-06T09:53:59.183Z,70.80
2019-02-06T09:56:44.389Z,69.70
2019-02-06T09:59:30.193Z,70.40
2019-02-06T10:02:15.117Z,70.20
2019-02-06T10:05:00.377Z,69.60
2019-02-06T10:07:46.362Z,68.50
2019-02-06T10:10:31.895Z,68.60
2019-02-06T10:13:17.065Z,67.70
2019-02-06T10:16:03.250Z,67.10
2019-02-06T10:18:48.184Z,66.60
2019-02-06T10:21:34.064Z,66.40
2019-02-06T10:24:19.174Z,66.20
2019-02-06T10:27:04.396Z,66.00
2019-02-06T10:29:50.118Z,64.60
2019-02-06T10:32:35.442Z,64.90
2019-02-06T10:35:20.828Z,64.50
2019-02-06T10:38:05.947Z,64.50
2019-02-06T10:40:51.080Z,64.20
2019-02-06T10:43:36.430Z,65.10
2019-02-06T10:46:22.133Z,65.00
2019-02-06T10:49:07.902Z,65.40
2019-02-06T10:51:53.309Z,66.50
2019-02-06T10:54:38.412Z,66.50
2019-02-06T10:57:23.838Z,66.90
2019-02-06T11:00:43.082Z,67.10
2019-02-06T11:03:28.515Z,67.00
2019-02-06T11:06:13.781Z,67.30
2019-02-06T11:08:59.285Z,67.50
2019-02-06T11:11:45.127Z,66.40
2019-02-06T11:14:30.181Z,66.40
2019-02-06T11:17:15.197Z,67.10
2019-02-06T11:20:00.453Z,66.40
2019-02-06T11:22:46.272Z,66.70
2019-02-06T11:25:35.762Z,65.50
2019-02-06T11:28:20.958Z,64.70
2019-02-06T11:31:06.158Z,64.80
2019-02-06T11:33:51.488Z,65.10
2019-02-06T11:36:37.060Z,64.90
2019-02-06T11:39:22.768Z,64.70
2019-02-06T11:42:07.752Z,65.20
2019-02-06T11:44:55.062Z,65.50
2019-02-06T11:47:40.546Z,64.90
2019-02-06T11:50:27.766Z,64.30
2019-02-06T11:53:15.274Z,64.10
2019-02-06T11:56:00.374Z,63.80
2019-02-06T11:58:51.663Z,63.70
2019-02-06T12:01:37.427Z,63.60
2019-02-06T12:04:22.476Z,63.70
2019-02-06T12:07:07.500Z,63.60
2019-02-06T12:09:53.523Z,63.70
2019-02-06T12:12:38.553Z,63.30
2019-02-06T12:15:23.715Z,63.70
2019-02-06T12:18:09.047Z,63.80
2019-02-06T12:20:54.177Z,63.40
2019-02-06T12:23:39.635Z,63.30
2019-02-06T12:26:24.607Z,62.70
2019-02-06T12:29:10.017Z,61.00
2019-02-06T12:31:55.253Z,60.40
2019-02-06T12:34:40.430Z,60.70
2019-02-06T12:37:26.006Z,59.90
2019-02-06T12:40:21.099Z,60.40
2019-02-06T12:43:00.104Z,60.30
2019-02-06T12:45:46.528Z,61.40
2019-02-06T12:48:32.222Z,61.70
2019-02-06T12:51:17.313Z,61.30
2019-02-06T12:54:02.570Z,61.90
2019-02-06T12:56:47.831Z,61.90
2019-02-06T12:59:33.060Z,60.90
2019-02-06T13:02:18.348Z,61.00
2019-02-06T13:05:06.715Z,61.50
2019-02-06T13:07:52.044Z,61.00
2019-02-06T13:10:37.088Z,59.40
2019-02-06T13:13:22.379Z,60.10
2019-02-06T13:16:07.661Z,61.10
2019-02-06T13:18:52.971Z,60.80
2019-02-06T13:21:38.163Z,60.30
2019-02-06T13:24:23.131Z,59.80
2019-02-06T13:27:09.207Z,60.80
2019-02-06T13:29:54.176Z,60.80
2019-02-06T13:32:39.427Z,61.10
2019-02-06T13:35:25.358Z,61.50
2019-02-06T13:38:10.622Z,61.20
2019-02-06T13:40:56.363Z,61.20
2019-02-06T13:43:41.895Z,62.10
2019-02-06T13:46:27.103Z,61.30
2019-02-06T13:49:13.217Z,61.80
2019-02-06T13:51:58.807Z,61.90
2019-02-06T13:54:46.089Z,61.80
2019-02-06T13:57:40.039Z,61.50
2019-02-06T14:00:47.829Z,61.70
2019-02-06T14:03:33.397Z,60.20
2019-02-06T14:06:21.785Z,60.90
2019-02-06T14:09:22.267Z,61.90
2019-02-06T14:11:59.058Z,62.00
2019-02-06T14:14:44.269Z,62.30
2019-02-06T14:17:29.531Z,62.50
2019-02-06T14:20:17.632Z,61.60
2019-02-06T14:23:08.610Z,61.10
2019-02-06T14:26:03.543Z,61.30
2019-02-06T14:29:09.060Z,61.40
2019-02-06T14:32:07.170Z,61.50
2019-02-06T14:35:08.722Z,61.50
2019-02-06T14:38:03.545Z,62.40
2019-02-06T14:40:55.713Z,62.50
2019-02-06T14:44:16.650Z,62.50
2019-02-06T14:47:05.140Z,63.00
2019-02-06T14:50:09.108Z,63.10
2019-02-06T14:53:09.467Z,63.20
2019-02-06T14:56:16.875Z,63.80
2019-02-06T14:59:24.583Z,63.90
2019-02-06T15:02:31.094Z,63.90
2019-02-06T15:05:25.636Z,64.50
2019-02-06T15:08:26.861Z,64.10
2019-02-06T15:11:24.389Z,64.30
2019-02-06T15:14:31.091Z,63.40
2019-02-06T15:17:32.160Z,63.80
2019-02-06T15:20:24.272Z,64.20
2019-02-06T15:23:37.558Z,64.30
2019-02-06T15:26:26.331Z,64.80
2019-02-06T15:29:17.731Z,64.90
2019-02-06T15:32:09.432Z,65.40
2019-02-06T15:35:26.851Z,65.40
2019-02-06T15:38:22.424Z,66.20
2019-02-06T15:41:31.224Z,66.30
2019-02-06T15:44:27.770Z,66.70
2019-02-06T15:47:29.165Z,67.00
2019-02-06T15:50:26.691Z,67.20
2019-02-06T15:53:38.093Z,67.70
2019-02-06T15:56:35.463Z,67.60
2019-02-06T15:59:46.042Z,67.70
2019-02-06T16:02:46.590Z,68.80
2019-02-06T16:06:06.815Z,68.40
2019-02-06T16:08:58.800Z,69.30
2019-02-06T16:11:47.726Z,68.70
2019-02-06T16:14:54.311Z,69.00
2019-02-06T16:18:01.417Z,69.00
2019-02-06T16:21:08.342Z,69.70
2019-02-06T16:23:59.722Z,69.50
2019-02-06T16:27:36.648Z,69.70
2019-02-06T16:30:25.192Z,70.00
2019-02-06T16:33:42.381Z,70.40
2019-02-06T16:36:51.956Z,70.60
2019-02-06T16:39:41.158Z,70.30
2019-02-06T16:42:43.031Z,70.50
2019-02-06T16:45:52.952Z,70.60
2019-02-06T16:48:53.924Z,70.90
2019-02-06T16:51:43.591Z,70.80
2019-02-06T16:54:50.974Z,71.40
2019-02-06T16:57:54.505Z,71.40
2019-02-06T17:00:49.317Z,71.40
2019-02-06T17:03:50.353Z,71.80
2019-02-06T17:06:51.222Z,72.10
2019-02-06T17:10:00.641Z,72.20
2019-02-06T17:12:54.971Z,71.90
2019-02-06T17:16:10.084Z,72.30
2019-02-06T17:19:04.726Z,72.60
2019-02-06T17:22:05.497Z,72.80
2019-02-06T17:24:54.816Z,72.50
2019-02-06T17:27:46.514Z,72.40
2019-02-06T17:30:51.370Z,72.90
2019-02-06T17:33:49.081Z,72.90
2019-02-06T17:36:56.387Z,72.70
2019-02-06T17:39:57.562Z,72.60
2019-02-06T17:42:52.554Z,72.70
2019-02-06T17:45:48.372Z,72.60
2019-02-06T17:48:46.821Z,72.90
2019-02-06T17:51:57.159Z,72.40
2019-02-06T17:55:05.422Z,72.50
2019-02-06T17:57:53.332Z,72.80
2019-02-06T18:01:08.203Z,72.40
2019-02-06T18:03:55.059Z,72.40
2019-02-06T18:06:40.552Z,72.30
2019-02-06T18:09:25.917Z,72.80
2019-02-06T18:12:10.994Z,72.20
2019-02-06T18:14:56.257Z,72.20
2019-02-06T18:17:41.447Z,72.30
2019-02-06T18:20:26.787Z,72.70
2019-02-06T18:23:12.179Z,72.20
2019-02-06T18:25:57.636Z,72.90
2019-02-06T18:28:43.102Z,72.90
2019-02-06T18:31:28.293Z,72.70
2019-02-06T18:34:13.372Z,72.90
2019-02-06T18:36:58.646Z,72.90
2019-02-06T18:39:43.895Z,72.40
2019-02-06T18:42:36.785Z,72.50
2019-02-06T18:45:18.294Z,72.50
2019-02-06T18:48:07.840Z,72.30
2019-02-06T18:50:53.085Z,72.30
2019-02-06T18:53:38.258Z,73.10
2019-02-06T18:56:23.426Z,72.50
2019-02-06T18:59:09.251Z,72.70
2019-02-06T19:01:55.518Z,72.50
2019-02-06T19:04:41.686Z,72.60
2019-02-06T19:07:26.697Z,72.30
2019-02-06T19:10:16.153Z,73.00
2019-02-06T19:13:01.531Z,72.50
2019-02-06T19:15:56.120Z,73.20
2019-02-06T19:18:37.115Z,73.20
2019-02-06T19:21:21.496Z,72.60
2019-02-06T19:24:06.782Z,73.00
2019-02-06T19:26:51.839Z,73.10
2019-02-06T19:29:37.367Z,72.90
2019-02-06T19:32:22.396Z,72.80
2019-02-06T19:35:09.190Z,72.90
2019-02-06T19:37:54.694Z,73.50
2019-02-06T19:40:39.970Z,73.20
2019-02-06T19:43:25.606Z,73.10
2019-02-06T19:46:11.034Z,73.00
2019-02-06T19:48:56.173Z,73.50
2019-02-06T19:51:41.658Z,72.80
2019-02-06T19:54:26.883Z,72.70
2019-02-06T19:57:12.183Z,73.60
2019-02-06T19:59:57.191Z,73.10
2019-02-06T20:02:42.751Z,73.20
2019-02-06T20:05:27.908Z,73.40
2019-02-06T20:08:14.371Z,73.70
2019-02-06T20:10:59.704Z,73.30
2019-02-06T20:13:45.031Z,73.90
2019-02-06T20:16:30.669Z,73.40
2019-02-06T20:19:16.241Z,74.10
2019-02-06T20:22:01.525Z,73.80
2019-02-06T20:24:48.023Z,73.80
2019-02-06T20:27:33.104Z,73.80
2019-02-06T20:30:25.187Z,73.70
2019-02-06T20:33:10.526Z,74.20
2019-02-06T20:35:59.969Z,74.70
2019-02-06T20:38:44.920Z,74.30
2019-02-06T20:41:30.221Z,74.50
2019-02-06T20:44:15.942Z,73.90
2019-02-06T20:47:01.198Z,74.00
2019-02-06T20:50:08.171Z,74.10
2019-02-06T20:52:53.564Z,74.10
2019-02-06T20:55:39.279Z,74.90
2019-02-06T20:58:24.487Z,74.30
2019-02-06T21:01:09.746Z,74.80
2019-02-06T21:03:55.196Z,74.50
2019-02-06T21:06:40.419Z,74.70
2019-02-06T21:09:25.730Z,74.00
2019-02-06T21:12:11.111Z,74.10
2019-02-06T21:14:57.588Z,74.30
2019-02-06T21:17:42.705Z,73.90
2019-02-06T21:20:27.790Z,74.50
2019-02-06T21:23:13.621Z,74.00
2019-02-06T21:25:58.668Z,74.60
2019-02-06T21:28:43.884Z,74.20
2019-02-06T21:31:36.564Z,74.20
2019-02-06T21:34:22.194Z,74.60
2019-02-06T21:37:10.439Z,74.40
2019-02-06T21:39:56.410Z,73.90
2019-02-06T21:42:41.820Z,74.40
2019-02-06T21:45:27.646Z,74.80
2019-02-06T21:48:22.255Z,74.60
2019-02-06T21:51:05.889Z,74.20
2019-02-06T21:53:51.543Z,74.40
2019-02-06T21:56:37.151Z,74.50
2019-02-06T21:59:26.083Z,74.40
2019-02-06T22:02:11.554Z,74.60
2019-02-06T22:04:56.916Z,74.40
2019-02-06T22:07:43.955Z,74.90
2019-02-06T22:10:29.613Z,74.60
2019-02-06T22:13:14.659Z,74.90
2019-02-06T22:15:59.905Z,75.00
2019-02-06T22:18:45.111Z,74.70
2019-02-06T22:21:30.497Z,75.00
2019-02-06T22:24:15.554Z,75.30
2019-02-06T22:27:00.930Z,75.20
2019-02-06T22:29:46.032Z,75.00
2019-02-06T22:32:31.463Z,74.80
2019-02-06T22:35:16.980Z,74.80
2019-02-06T22:38:02.105Z,75.50
2019-02-06T22:40:47.952Z,74.90
2019-02-06T22:43:33.530Z,75.00
2019-02-06T22:46:18.956Z,75.60
2019-02-06T22:49:04.197Z,75.40
2019-02-06T22:51:51.176Z,75.50
2019-02-06T22:54:36.677Z,75.20
2019-02-06T22:57:22.096Z,75.10
2019-02-06T23:00:31.484Z,75.10
2019-02-06T23:03:23.634Z,75.10
2019-02-06T23:06:09.115Z,75.20
2019-02-06T23:08:54.229Z,75.00
2019-02-06T23:11:39.455Z,75.10
2019-02-06T23:14:25.140Z,74.90
2019-02-06T23:17:10.354Z,75.10
2019-02-06T23:19:55.858Z,74.90
2019-02-06T23:22:41.648Z,74.90
2019-02-06T23:25:26.704Z,74.60
2019-02-06T23:28:12.086Z,75.00
2019-02-06T23:30:57.139Z,74.80
2019-02-06T23:33:42.326Z,74.60
2019-02-06T23:36:27.767Z,74.70
2019-02-06T23:39:13.667Z,74.50
2019-02-06T23:41:58.810Z,74.70
2019-02-06T23:44:44.164Z,74.80
2019-02-06T23:47:29.244Z,74.70
2019-02-06T23:50:16.651Z,75.00
2019-02-06T23:53:02.023Z,75.40
2019-02-06T23:55:46.887Z,74.90
2019-02-06T23:58:31.974Z,75.30
